Time;durP1;ratioP1;P1;durP2;ratioP2;P2;SDS_P1;SDS_P2;PMS_P1;PMS_P2;Temp;Humidity;BMP_temperature;BMP_pressure;BME280_temperature;BME280_humidity;BME280_pressure;Samples;Min_cycle;Max_cycle;Signal;HPM_P1;HPM_P2
2020/12/15 00:00:30;;;;;;;1.50;1.00;;;4.20;76.40;;;;;;5076465;28;20501;-72
2020/12/15 00:02:56;;;;;;;3.03;1.00;;;4.20;76.00;;;;;;5058614;28;20027;-70
2020/12/15 00:05:22;;;;;;;1.80;1.00;;;4.20;75.60;;;;;;5076585;28;20031;-71
2020/12/15 00:07:47;;;;;;;1.45;0.90;;;4.20;75.60;;;;;;5076350;28;20339;-70
2020/12/15 00:10:16;;;;;;;2.63;1.00;;;4.10;75.50;;;;;;5076628;28;20036;-70
2020/12/15 00:12:44;;;;;;;2.78;0.88;;;4.10;75.60;;;;;;5058565;28;20059;-71
2020/12/15 00:15:10;;;;;;;1.73;1.20;;;4.10;75.80;;;;;;5076511;28;20094;-72
2020/12/15 00:17:35;;;;;;;0.88;0.65;;;4.00;75.70;;;;;;5076260;28;20020;-72
2020/12/15 00:20:01;;;;;;;4.57;1.17;;;4.00;75.80;;;;;;5076259;28;20066;-72
2020/12/15 00:22:27;;;;;;;3.72;2.00;;;4.00;75.80;;;;;;5076219;28;20024;-71
2020/12/15 00:24:53;;;;;;;1.75;1.15;;;4.10;75.00;;;;;;5076571;28;20101;-72
2020/12/15 00:27:19;;;;;;;1.77;1.05;;;4.20;73.90;;;;;;5054927;28;20041;-70
2020/12/15 00:29:44;;;;;;;1.85;0.60;;;4.20;73.10;;;;;;5056106;28;20160;-70
2020/12/15 00:32:10;;;;;;;1.20;0.80;;;4.30;73.20;;;;;;5056347;28;20049;-70
2020/12/15 00:34:38;;;;;;;1.02;0.73;;;4.30;73.10;;;;;;5056293;28;20298;-70
2020/12/15 00:37:04;;;;;;;1.52;0.85;;;4.30;73.50;;;;;;5055997;28;20025;-70
2020/12/15 00:39:30;;;;;;;1.80;0.88;;;4.30;74.30;;;;;;5056388;28;20090;-70
2020/12/15 00:41:55;;;;;;;2.33;1.00;;;4.30;74.60;;;;;;5055992;28;20025;-70
2020/12/15 00:44:21;;;;;;;1.55;0.77;;;4.20;74.30;;;;;;5056185;28;20033;-70
2020/12/15 00:46:50;;;;;;;1.05;0.77;;;4.20;74.40;;;;;;5055996;28;20358;-70
2020/12/15 00:49:17;;;;;;;1.50;0.80;;;4.20;73.40;;;;;;5056254;28;20021;-70
2020/12/15 00:51:42;;;;;;;1.00;0.68;;;4.20;73.30;;;;;;5055959;28;20071;-70
2020/12/15 00:54:08;;;;;;;1.50;0.80;;;4.20;73.30;;;;;;5055645;28;20045;-70
2020/12/15 00:56:34;;;;;;;1.50;0.90;;;4.30;73.30;;;;;;5057300;28;20052;-70
2020/12/15 00:58:59;;;;;;;1.20;0.90;;;4.30;73.70;;;;;;5059665;28;20063;-71
2020/12/15 01:01:25;;;;;;;1.27;0.80;;;4.20;74.40;;;;;;5059575;28;20028;-72
2020/12/15 01:03:51;;;;;;;2.03;1.20;;;4.20;74.70;;;;;;5059285;28;20029;-72
2020/12/15 01:06:16;;;;;;;1.40;0.90;;;4.10;75.80;;;;;;5059423;28;20028;-72
2020/12/15 01:08:42;;;;;;;2.17;0.90;;;4.00;75.60;;;;;;5059273;28;20025;-72
2020/12/15 01:11:08;;;;;;;2.35;0.63;;;4.00;75.10;;;;;;5059422;28;20032;-70
2020/12/15 01:13:36;;;;;;;1.58;0.73;;;4.10;74.80;;;;;;5059427;28;20040;-70
2020/12/15 01:16:11;;;;;;;2.10;0.70;;;4.10;74.50;;;;;;5059694;28;20034;-70
2020/12/15 01:18:36;;;;;;;2.15;0.80;;;4.10;74.00;;;;;;5059209;28;20028;-72
2020/12/15 01:21:03;;;;;;;1.63;0.73;;;4.20;74.00;;;;;;5059023;28;20025;-70
2020/12/15 01:23:29;;;;;;;1.15;0.73;;;4.20;73.90;;;;;;5058947;28;20102;-71
2020/12/15 01:25:55;;;;;;;1.05;0.60;;;4.30;73.60;;;;;;5066834;28;20484;-72
2020/12/15 01:28:20;;;;;;;1.02;0.73;;;4.40;73.20;;;;;;5078922;28;20024;-70
2020/12/15 01:30:46;;;;;;;0.93;0.60;;;4.40;73.30;;;;;;5079510;28;20021;-70
2020/12/15 01:33:11;;;;;;;1.98;0.68;;;4.50;73.20;;;;;;5079042;28;20029;-70
2020/12/15 01:35:37;;;;;;;0.60;0.40;;;4.50;73.20;;;;;;5060945;28;20099;-70
2020/12/15 01:38:03;;;;;;;0.95;0.63;;;4.40;73.10;;;;;;5078981;28;20036;-70
2020/12/15 01:40:28;;;;;;;1.15;0.73;;;4.40;73.10;;;;;;5079125;28;20108;-70
2020/12/15 01:42:54;;;;;;;0.70;0.50;;;4.40;72.80;;;;;;5078914;28;20032;-70
2020/12/15 01:45:24;;;;;;;1.05;0.55;;;4.30;72.90;;;;;;5060807;28;20349;-70
2020/12/15 01:47:52;;;;;;;0.80;0.55;;;4.20;73.10;;;;;;5078706;28;20033;-70
2020/12/15 01:50:23;;;;;;;0.60;0.40;;;4.20;74.10;;;;;;5078676;28;20416;-70
2020/12/15 01:52:51;;;;;;;1.10;0.60;;;4.20;74.20;;;;;;5078280;28;20033;-70
2020/12/15 01:55:18;;;;;;;1.13;0.63;;;4.30;74.10;;;;;;5078389;28;20036;-70
2020/12/15 01:57:45;;;;;;;1.08;0.70;;;4.30;73.60;;;;;;5078470;28;20024;-70
2020/12/15 02:00:11;;;;;;;1.42;0.80;;;4.30;73.30;;;;;;5078331;28;20029;-70
2020/12/15 02:02:39;;;;;;;0.88;0.50;;;4.30;73.70;;;;;;5078190;28;20028;-70
2020/12/15 02:05:05;;;;;;;1.60;0.77;;;4.30;73.90;;;;;;5060438;28;20017;-70
2020/12/15 02:07:31;;;;;;;0.90;0.60;;;4.30;73.30;;;;;;5060155;28;20410;-71
2020/12/15 02:09:56;;;;;;;1.50;0.70;;;4.30;73.80;;;;;;5078416;28;20316;-70
2020/12/15 02:12:22;;;;;;;1.70;0.77;;;4.30;74.10;;;;;;5078012;28;20482;-70
2020/12/15 02:14:48;;;;;;;1.80;0.82;;;4.30;74.30;;;;;;5078212;28;20092;-70
2020/12/15 02:17:14;;;;;;;1.33;0.80;;;4.20;74.00;;;;;;5077929;28;20033;-71
2020/12/15 02:19:40;;;;;;;1.20;0.70;;;4.30;73.90;;;;;;5078183;28;20383;-71
2020/12/15 02:22:06;;;;;;;2.20;0.80;;;4.20;73.80;;;;;;5078027;28;20104;-70
2020/12/15 02:24:31;;;;;;;1.02;0.77;;;4.20;74.00;;;;;;5078045;28;20025;-70
2020/12/15 02:26:57;;;;;;;0.85;0.60;;;4.20;74.50;;;;;;5077386;28;20049;-70
2020/12/15 02:29:23;;;;;;;1.40;0.60;;;4.10;74.90;;;;;;5077736;28;20036;-70
2020/12/15 02:31:49;;;;;;;0.85;0.57;;;4.00;75.30;;;;;;5059992;28;20029;-71
2020/12/15 02:34:15;;;;;;;0.82;0.50;;;4.00;75.80;;;;;;5059877;28;20462;-70
2020/12/15 02:36:44;;;;;;;0.88;0.47;;;4.00;75.70;;;;;;5077627;28;20029;-71
2020/12/15 02:39:13;;;;;;;0.73;0.55;;;4.00;75.30;;;;;;5077587;28;20020;-71
2020/12/15 02:41:42;;;;;;;0.90;0.60;;;4.00;75.00;;;;;;5077442;28;20035;-70
2020/12/15 02:44:09;;;;;;;0.95;0.60;;;4.10;74.90;;;;;;5077364;28;20458;-70
2020/12/15 02:46:36;;;;;;;1.02;0.50;;;4.10;74.70;;;;;;5077396;28;20024;-70
2020/12/15 02:49:02;;;;;;;0.68;0.47;;;4.10;74.50;;;;;;5077407;28;20039;-71
2020/12/15 02:51:28;;;;;;;1.25;0.60;;;4.10;74.70;;;;;;5077294;28;20032;-72
2020/12/15 02:53:54;;;;;;;1.17;0.65;;;4.00;74.70;;;;;;5059354;28;20032;-69
2020/12/15 02:56:21;;;;;;;0.90;0.50;;;4.10;74.90;;;;;;5077484;28;20032;-69
2020/12/15 02:58:46;;;;;;;1.10;0.68;;;4.10;74.70;;;;;;5077186;28;20300;-69
2020/12/15 03:01:12;;;;;;;2.58;0.70;;;4.10;75.60;;;;;;5077088;28;20032;-71
2020/12/15 03:03:38;;;;;;;1.35;0.60;;;4.10;74.70;;;;;;5077150;28;20082;-70
2020/12/15 03:06:03;;;;;;;0.88;0.60;;;4.10;73.30;;;;;;5077049;28;20021;-70
2020/12/15 03:08:29;;;;;;;1.48;0.93;;;4.20;73.70;;;;;;5077026;28;20028;-70
2020/12/15 03:10:55;;;;;;;1.90;0.93;;;4.30;73.80;;;;;;5076988;28;20404;-71
2020/12/15 03:13:20;;;;;;;2.58;1.00;;;4.20;73.80;;;;;;5076865;28;20028;-72
2020/12/15 03:15:46;;;;;;;3.28;1.38;;;4.30;73.40;;;;;;5076897;28;20064;-69
2020/12/15 03:18:12;;;;;;;3.60;1.00;;;4.30;73.50;;;;;;5077075;28;20028;-71
2020/12/15 03:20:38;;;;;;;5.57;1.10;;;4.30;73.60;;;;;;5076506;28;20025;-70
2020/12/15 03:23:04;;;;;;;2.08;0.98;;;4.30;73.60;;;;;;5076801;28;20055;-70
2020/12/15 03:25:36;;;;;;;2.00;0.85;;;4.40;73.10;;;;;;5076586;28;20064;-70
2020/12/15 03:28:02;;;;;;;0.73;0.40;;;4.40;72.80;;;;;;5076851;28;20432;-69
2020/12/15 03:30:28;;;;;;;0.60;0.40;;;4.60;72.90;;;;;;5076838;28;20059;-70
2020/12/15 03:32:54;;;;;;;0.40;0.30;;;4.60;73.20;;;;;;5076701;28;20321;-70
2020/12/15 03:35:19;;;;;;;1.27;0.40;;;4.60;73.60;;;;;;5076822;28;20029;-71
2020/12/15 03:37:45;;;;;;;2.45;0.70;;;4.60;72.70;;;;;;5076924;28;20020;-70
2020/12/15 03:40:11;;;;;;;1.52;0.30;;;4.60;72.20;;;;;;5076930;28;20024;-70
2020/12/15 03:42:39;;;;;;;0.60;0.40;;;4.60;72.50;;;;;;5076884;28;20025;-70
2020/12/15 03:45:05;;;;;;;0.68;0.50;;;4.60;73.40;;;;;;5076552;28;20401;-71
2020/12/15 03:47:31;;;;;;;0.52;0.45;;;4.60;73.30;;;;;;5076848;28;20078;-70
2020/12/15 03:49:56;;;;;;;0.50;0.40;;;4.70;70.70;;;;;;5076600;28;20020;-70
2020/12/15 03:52:22;;;;;;;0.82;0.45;;;4.90;69.60;;;;;;5076741;28;20152;-69
2020/12/15 03:54:48;;;;;;;1.13;0.60;;;5.10;68.40;;;;;;5077325;28;20472;-69
2020/12/15 03:57:13;;;;;;;1.45;0.70;;;5.50;67.40;;;;;;5076433;28;20025;-69
2020/12/15 03:59:41;;;;;;;0.88;0.55;;;5.70;67.10;;;;;;5076495;28;20033;-70
2020/12/15 04:02:07;;;;;;;0.63;0.40;;;5.80;66.30;;;;;;5076444;28;20350;-70
2020/12/15 04:04:32;;;;;;;0.90;0.60;;;5.80;65.80;;;;;;5076388;28;20111;-69
2020/12/15 04:06:58;;;;;;;1.00;0.70;;;5.90;65.70;;;;;;5058667;28;20017;-70
2020/12/15 04:09:26;;;;;;;0.90;0.52;;;5.90;65.90;;;;;;5076660;28;20396;-70
2020/12/15 04:11:51;;;;;;;0.98;0.50;;;5.90;65.30;;;;;;5058566;28;20024;-69
2020/12/15 04:14:17;;;;;;;0.82;0.40;;;6.00;64.50;;;;;;5058549;28;20120;-69
2020/12/15 04:16:43;;;;;;;1.17;0.50;;;6.30;63.40;;;;;;5076537;28;20406;-69
2020/12/15 04:19:08;;;;;;;0.70;0.40;;;6.30;63.40;;;;;;5076310;28;20107;-70
2020/12/15 04:21:34;;;;;;;0.70;0.40;;;6.40;63.10;;;;;;5058443;28;20025;-70
2020/12/15 04:23:59;;;;;;;0.52;0.30;;;6.40;62.70;;;;;;5076369;28;20025;-70
2020/12/15 04:26:25;;;;;;;0.82;0.43;;;6.40;63.00;;;;;;5076185;28;20040;-70
2020/12/15 04:28:51;;;;;;;0.85;0.43;;;6.40;63.00;;;;;;5076446;28;20320;-70
2020/12/15 04:31:16;;;;;;;0.75;0.45;;;6.40;63.30;;;;;;5078474;28;20455;-70
2020/12/15 04:33:42;;;;;;;0.90;0.50;;;6.30;64.40;;;;;;5080153;28;20024;-70
2020/12/15 04:36:08;;;;;;;0.80;0.50;;;6.10;65.90;;;;;;5079846;28;20025;-70
2020/12/15 04:38:33;;;;;;;1.27;0.60;;;5.90;65.70;;;;;;5079823;28;20025;-69
2020/12/15 04:40:59;;;;;;;0.52;0.40;;;5.80;64.80;;;;;;5079751;28;20293;-70
2020/12/15 04:43:25;;;;;;;1.00;0.57;;;5.90;65.10;;;;;;5079978;28;20408;-71
2020/12/15 04:45:52;;;;;;;1.10;0.52;;;5.90;65.20;;;;;;5079933;28;20097;-70
2020/12/15 04:48:23;;;;;;;0.80;0.40;;;6.00;65.00;;;;;;5061929;28;20017;-70
2020/12/15 04:50:50;;;;;;;0.60;0.43;;;6.00;64.20;;;;;;5079983;28;20324;-71
2020/12/15 04:53:23;;;;;;;0.70;0.50;;;6.10;65.30;;;;;;5079639;28;20032;-70
2020/12/15 04:55:52;;;;;;;1.92;0.70;;;6.00;65.20;;;;;;5079307;28;20031;-71
2020/12/15 04:58:23;;;;;;;1.02;0.65;;;5.90;66.60;;;;;;5061756;28;20412;-70
2020/12/15 05:00:49;;;;;;;0.70;0.40;;;5.70;67.30;;;;;;5079412;28;20021;-70
2020/12/15 05:03:21;;;;;;;1.02;0.60;;;5.50;67.40;;;;;;5079527;28;20416;-70
2020/12/15 05:05:50;;;;;;;0.90;0.60;;;5.40;66.90;;;;;;5079374;28;20107;-69
2020/12/15 05:08:16;;;;;;;3.03;0.40;;;5.50;66.30;;;;;;5079560;28;20024;-70
2020/12/15 05:10:42;;;;;;;1.80;0.38;;;5.70;65.60;;;;;;5079600;28;20074;-70
2020/12/15 05:13:07;;;;;;;0.60;0.43;;;5.90;64.70;;;;;;5079270;28;20316;-70
2020/12/15 05:15:33;;;;;;;0.52;0.40;;;6.00;64.20;;;;;;5079157;28;20378;-70
2020/12/15 05:18:07;;;;;;;0.80;0.50;;;6.10;64.00;;;;;;5061413;28;20077;-70
2020/12/15 05:20:33;;;;;;;0.63;0.45;;;6.20;64.50;;;;;;5079214;28;20032;-70
2020/12/15 05:22:59;;;;;;;0.93;0.45;;;6.10;65.30;;;;;;5078962;28;20048;-70
2020/12/15 05:25:27;;;;;;;0.70;0.50;;;6.10;64.90;;;;;;5079249;28;20055;-70
2020/12/15 05:27:57;;;;;;;0.70;0.40;;;6.00;65.60;;;;;;5078947;28;20052;-70
2020/12/15 05:30:23;;;;;;;0.98;0.47;;;5.90;66.70;;;;;;5079230;28;20051;-70
2020/12/15 05:32:50;;;;;;;1.25;0.75;;;5.90;67.20;;;;;;5078869;28;20408;-70
2020/12/15 05:35:28;;;;;;;1.13;0.45;;;5.80;68.20;;;;;;5078792;28;20107;-70
2020/12/15 05:37:58;;;;;;;1.42;0.50;;;5.60;68.60;;;;;;5078744;28;20033;-70
2020/12/15 05:40:24;;;;;;;1.60;0.80;;;5.60;68.70;;;;;;5078956;28;20024;-70
2020/12/15 05:43:07;;;;;;;0.85;0.43;;;5.50;68.10;;;;;;5078079;28;20512;-70
2020/12/15 05:45:34;;;;;;;0.80;0.50;;;5.50;69.10;;;;;;5078624;28;20020;-70
2020/12/15 05:48:10;;;;;;;1.77;0.50;;;5.50;66.70;;;;;;5060768;28;20027;-70
2020/12/15 05:50:38;;;;;;;0.82;0.47;;;5.60;66.20;;;;;;5078722;28;20044;-70
2020/12/15 05:53:06;;;;;;;0.98;0.50;;;5.80;65.10;;;;;;5078611;28;20025;-70
2020/12/15 05:55:32;;;;;;;0.88;0.50;;;5.90;64.90;;;;;;5078442;28;20447;-70
2020/12/15 05:57:59;;;;;;;2.63;0.40;;;6.00;65.40;;;;;;5078334;28;20056;-70
2020/12/15 06:00:26;;;;;;;0.85;0.55;;;6.00;65.60;;;;;;5077809;28;20074;-70
2020/12/15 06:03:00;;;;;;;3.10;1.40;;;6.00;65.50;;;;;;5078211;28;20397;-71
2020/12/15 06:05:31;;;;;;;4.80;3.00;;;6.10;64.80;;;;;;5078277;28;20062;-70
2020/12/15 06:07:58;;;;;;;1.02;0.70;;;6.20;64.80;;;;;;5078160;28;20030;-70
2020/12/15 06:10:25;;;;;;;1.48;0.40;;;6.30;64.30;;;;;;5078459;28;20016;-69
2020/12/15 06:12:52;;;;;;;0.50;0.30;;;6.30;62.90;;;;;;5078058;28;20134;-70
2020/12/15 06:15:18;;;;;;;0.68;0.40;;;6.40;62.90;;;;;;5077915;28;20020;-70
2020/12/15 06:18:03;;;;;;;0.57;0.30;;;6.50;61.70;;;;;;5060255;28;20020;-70
2020/12/15 06:20:36;;;;;;;0.90;0.43;;;6.50;62.00;;;;;;5078621;28;20112;-70
2020/12/15 06:23:03;;;;;;;0.52;0.35;;;6.60;64.50;;;;;;5077867;28;20059;-71
2020/12/15 06:25:28;;;;;;;0.60;0.32;;;6.50;63.30;;;;;;5077614;28;20045;-70
2020/12/15 06:28:04;;;;;;;0.75;0.40;;;6.50;63.30;;;;;;5077739;28;20443;-70
2020/12/15 06:30:35;;;;;;;0.70;0.57;;;6.40;63.80;;;;;;5077864;28;20025;-70
2020/12/15 06:33:03;;;;;;;0.80;0.50;;;6.40;63.20;;;;;;5077913;28;20036;-70
2020/12/15 06:35:31;;;;;;;0.90;0.57;;;6.40;64.20;;;;;;5077854;28;20381;-70
2020/12/15 06:37:57;;;;;;;0.47;0.30;;;6.30;65.80;;;;;;5077588;28;20060;-70
2020/12/15 06:40:22;;;;;;;0.82;0.52;;;6.30;66.70;;;;;;5077763;28;20055;-70
2020/12/15 06:42:58;;;;;;;1.17;0.55;;;6.20;66.40;;;;;;5077525;28;20020;-70
2020/12/15 06:45:24;;;;;;;1.00;0.50;;;6.20;66.80;;;;;;5077513;28;20032;-70
2020/12/15 06:48:00;;;;;;;0.63;0.30;;;6.20;66.20;;;;;;5077440;28;20062;-70
2020/12/15 06:50:26;;;;;;;;;;;6.20;66.30;;;;;;5078069;28;20025;-70
2020/12/15 06:52:53;;;;;;;0.57;0.40;;;6.20;65.90;;;;;;5077573;28;19927;-70
2020/12/15 06:55:29;;;;;;;0.70;0.40;;;6.20;64.00;;;;;;5076326;28;20028;-70
2020/12/15 06:57:59;;;;;;;1.05;0.50;;;6.30;64.70;;;;;;5059557;28;20107;-70
2020/12/15 07:00:39;;;;;;;0.50;0.30;;;6.30;66.40;;;;;;5077106;28;20482;-70
2020/12/15 07:03:08;;;;;;;0.95;0.55;;;6.40;66.70;;;;;;5077173;28;20538;-70
2020/12/15 07:05:38;;;;;;;1.00;0.50;;;6.40;63.60;;;;;;5077080;28;20031;-70
2020/12/15 07:08:08;;;;;;;0.50;0.30;;;6.50;64.00;;;;;;5077312;28;20032;-70
2020/12/15 07:10:38;;;;;;;0.52;0.35;;;6.70;63.30;;;;;;5077322;28;20029;-70
2020/12/15 07:13:04;;;;;;;0.60;0.40;;;6.80;63.10;;;;;;5077218;28;20025;-70
2020/12/15 07:15:32;;;;;;;0.45;0.30;;;6.90;62.90;;;;;;5076927;28;20031;-70
2020/12/15 07:17:58;;;;;;;0.60;0.40;;;7.00;62.30;;;;;;5076535;28;20085;-70
2020/12/15 07:20:24;;;;;;;0.82;0.43;;;7.10;62.00;;;;;;5059131;28;20028;-70
2020/12/15 07:22:53;;;;;;;0.68;0.32;;;7.10;63.70;;;;;;5076937;28;20013;-70
2020/12/15 07:25:21;;;;;;;1.73;0.50;;;7.10;66.10;;;;;;5076896;28;20317;-72
2020/12/15 07:27:48;;;;;;;0.38;0.22;;;7.00;67.20;;;;;;5076625;28;20106;-70
2020/12/15 07:30:22;;;;;;;0.65;0.32;;;6.90;65.90;;;;;;5076808;28;20032;-70
2020/12/15 07:32:49;;;;;;;0.45;0.25;;;6.90;65.80;;;;;;5076905;28;20028;-70
2020/12/15 07:35:25;;;;;;;0.88;0.45;;;7.00;64.60;;;;;;5076673;28;20073;-71
2020/12/15 07:37:56;;;;;;;0.55;0.40;;;7.00;69.40;;;;;;5076669;28;20017;-70
2020/12/15 07:40:23;;;;;;;2.42;0.98;;;7.10;69.00;;;;;;5076923;28;20024;-70
2020/12/15 07:42:58;;;;;;;1.35;0.60;;;7.10;69.90;;;;;;5076870;28;20021;-69
2020/12/15 07:45:30;;;;;;;1.27;0.80;;;7.10;68.60;;;;;;5076684;28;20024;-69
2020/12/15 07:47:57;;;;;;;1.02;0.45;;;7.10;69.40;;;;;;5076709;28;20075;-71
2020/12/15 07:50:30;;;;;;;0.88;0.40;;;7.10;68.10;;;;;;5076898;28;20334;-72
2020/12/15 07:53:05;;;;;;;2.00;0.40;;;7.20;69.40;;;;;;5076726;28;20109;-70
2020/12/15 07:55:31;;;;;;;1.35;0.40;;;7.20;73.80;;;;;;5077097;28;20402;-70
2020/12/15 07:57:57;;;;;;;0.35;0.25;;;7.10;72.30;;;;;;5076475;28;20120;-70
2020/12/15 08:00:23;;;;;;;2.17;0.50;;;7.10;73.70;;;;;;5076492;28;20154;-69
2020/12/15 08:02:50;;;;;;;0.60;0.30;;;7.00;76.70;;;;;;5076726;28;20297;-70
2020/12/15 08:05:21;;;;;;;1.42;0.40;;;6.90;77.20;;;;;;5077175;28;20099;-70
2020/12/15 08:07:55;;;;;;;0.60;0.40;;;6.80;75.50;;;;;;5080400;28;20021;-69
2020/12/15 08:10:29;;;;;;;0.40;0.38;;;6.80;73.10;;;;;;5080806;28;20095;-69
2020/12/15 08:12:56;;;;;;;0.88;0.40;;;6.80;75.70;;;;;;5080544;28;20025;-71
2020/12/15 08:15:22;;;;;;;0.82;0.40;;;6.90;69.50;;;;;;5080371;28;20009;-72
2020/12/15 08:17:49;;;;;;;0.50;0.30;;;7.00;66.60;;;;;;5080040;28;20374;-72
2020/12/15 08:20:18;;;;;;;0.52;0.30;;;7.10;65.40;;;;;;5080446;28;20078;-72
2020/12/15 08:22:47;;;;;;;0.60;0.30;;;7.20;65.80;;;;;;5080738;28;20031;-69
2020/12/15 08:25:17;;;;;;;0.75;0.40;;;7.40;64.80;;;;;;5080615;28;20020;-71
2020/12/15 08:27:42;;;;;;;0.73;0.40;;;7.60;64.00;;;;;;5079962;28;20048;-70
2020/12/15 08:30:19;;;;;;;0.50;0.35;;;7.60;63.30;;;;;;5080174;28;20419;-70
2020/12/15 08:32:47;;;;;;;0.77;0.32;;;7.70;63.10;;;;;;5080276;28;20103;-70
2020/12/15 08:35:24;;;;;;;0.90;0.50;;;7.70;62.70;;;;;;5080090;28;20424;-69
2020/12/15 08:38:02;;;;;;;0.60;0.30;;;7.70;62.60;;;;;;5079958;28;20024;-70
2020/12/15 08:40:29;;;;;;;0.80;0.40;;;7.80;61.30;;;;;;5080416;28;20017;-70
2020/12/15 08:43:01;;;;;;;1.00;0.50;;;7.90;61.20;;;;;;5079794;28;20370;-70
2020/12/15 08:45:27;;;;;;;0.90;0.40;;;7.90;61.70;;;;;;5079754;28;20024;-70
2020/12/15 08:47:58;;;;;;;0.95;0.45;;;7.90;61.90;;;;;;5079615;28;20438;-70
2020/12/15 08:50:30;;;;;;;0.47;0.40;;;7.80;61.60;;;;;;5079928;28;20013;-70
2020/12/15 08:53:12;;;;;;;0.55;0.30;;;7.80;62.20;;;;;;5079579;28;20035;-70
2020/12/15 08:55:42;;;;;;;0.40;0.30;;;7.80;61.10;;;;;;5080002;28;20404;-70
2020/12/15 08:58:09;;;;;;;0.50;0.30;;;7.90;61.30;;;;;;5079497;28;20107;-70
2020/12/15 09:00:36;;;;;;;0.35;0.30;;;7.90;62.40;;;;;;5079397;28;20109;-71
2020/12/15 09:03:16;;;;;;;0.80;0.40;;;7.90;61.80;;;;;;5061730;28;20024;-70
2020/12/15 09:05:49;;;;;;;1.33;0.40;;;8.00;61.50;;;;;;5079502;28;20363;-70
2020/12/15 09:08:16;;;;;;;0.80;0.60;;;8.00;61.30;;;;;;5079334;28;20024;-70
2020/12/15 09:10:41;;;;;;;0.57;0.40;;;8.00;60.80;;;;;;5079632;28;20032;-70
2020/12/15 09:13:07;;;;;;;0.50;0.32;;;8.00;61.70;;;;;;5079287;28;20409;-70
2020/12/15 09:15:33;;;;;;;0.90;0.40;;;8.10;60.20;;;;;;5079142;28;20111;-71
2020/12/15 09:17:59;;;;;;;0.28;0.20;;;8.20;61.20;;;;;;5078102;28;20427;-70
2020/12/15 09:20:31;;;;;;;0.52;0.30;;;8.30;59.60;;;;;;5079109;28;20029;-70
2020/12/15 09:22:57;;;;;;;0.20;0.20;;;8.40;60.90;;;;;;5061590;28;20343;-70
2020/12/15 09:25:24;;;;;;;2.60;0.20;;;8.50;59.60;;;;;;5078945;28;20089;-70
2020/12/15 09:27:50;;;;;;;0.57;0.40;;;8.60;59.10;;;;;;5078834;28;20048;-70
2020/12/15 09:30:18;;;;;;;0.30;0.20;;;8.80;59.30;;;;;;5078996;28;20475;-70
2020/12/15 09:32:47;;;;;;;0.50;0.30;;;8.90;59.80;;;;;;5078907;28;20012;-70
2020/12/15 09:35:16;;;;;;;0.57;0.28;;;8.90;61.60;;;;;;5061032;28;20035;-70
2020/12/15 09:37:43;;;;;;;0.50;0.35;;;8.90;63.30;;;;;;5078913;28;20032;-70
2020/12/15 09:40:10;;;;;;;0.47;0.28;;;8.90;64.30;;;;;;5078835;28;20109;-70
2020/12/15 09:42:45;;;;;;;0.52;0.28;;;9.00;63.50;;;;;;5078887;28;20298;-70
2020/12/15 09:45:11;;;;;;;0.50;0.30;;;9.10;61.70;;;;;;5078652;28;20070;-70
2020/12/15 09:47:43;;;;;;;0.60;0.30;;;9.20;60.10;;;;;;5060851;28;20020;-70
2020/12/15 09:50:09;;;;;;;0.40;0.30;;;9.20;63.30;;;;;;5079091;28;20103;-70
2020/12/15 09:52:35;;;;;;;0.82;0.40;;;9.30;63.70;;;;;;5078738;28;20024;-70
2020/12/15 09:55:01;;;;;;;0.63;0.40;;;9.40;64.50;;;;;;5060851;28;20028;-70
2020/12/15 09:57:27;;;;;;;0.77;0.47;;;9.40;62.90;;;;;;5060718;28;20309;-70
2020/12/15 09:59:52;;;;;;;1.23;0.63;;;9.40;62.10;;;;;;5078433;28;20025;-70
2020/12/15 10:02:20;;;;;;;1.83;0.50;;;9.30;61.90;;;;;;5078246;28;20059;-70
2020/12/15 10:04:46;;;;;;;1.17;0.50;;;9.20;62.30;;;;;;5078481;28;20028;-70
2020/12/15 10:07:13;;;;;;;0.70;0.50;;;9.10;64.00;;;;;;5077788;28;20112;-70
2020/12/15 10:09:38;;;;;;;0.80;0.55;;;9.10;65.50;;;;;;5069368;28;20119;-70
2020/12/15 10:12:04;;;;;;;1.20;0.60;;;9.00;63.40;;;;;;5078091;28;20060;-70
2020/12/15 10:14:30;;;;;;;2.17;0.95;;;8.90;64.40;;;;;;5060532;28;20027;-70
2020/12/15 10:16:55;;;;;;;1.10;0.80;;;8.90;66.50;;;;;;5078251;28;20036;-70
2020/12/15 10:19:21;;;;;;;2.05;1.25;;;8.90;68.00;;;;;;5078048;28;20102;-70
2020/12/15 10:21:47;;;;;;;1.67;1.08;;;8.80;68.90;;;;;;5078081;28;20029;-70
2020/12/15 10:24:12;;;;;;;1.83;1.38;;;8.80;69.10;;;;;;5078171;28;20032;-70
2020/12/15 10:26:38;;;;;;;1.92;1.27;;;8.80;69.50;;;;;;5077664;28;20056;-70
2020/12/15 10:29:04;;;;;;;4.30;1.60;;;8.70;67.80;;;;;;5077895;28;20028;-70
2020/12/15 10:31:29;;;;;;;3.03;1.50;;;8.70;69.10;;;;;;5078006;28;20040;-70
2020/12/15 10:33:56;;;;;;;2.83;1.48;;;8.70;68.40;;;;;;5060351;28;20045;-70
2020/12/15 10:36:21;;;;;;;1.73;1.13;;;8.70;67.60;;;;;;5077823;28;20031;-70
2020/12/15 10:38:50;;;;;;;2.33;1.10;;;8.70;64.30;;;;;;5077671;28;20108;-70
2020/12/15 10:41:23;;;;;;;1.85;1.13;;;8.80;66.10;;;;;;5077458;28;20021;-70
2020/12/15 10:43:49;;;;;;;2.47;1.15;;;8.80;65.60;;;;;;5077478;28;20028;-70
2020/12/15 10:46:24;;;;;;;2.50;1.20;;;8.70;65.00;;;;;;5077504;28;20017;-70
2020/12/15 10:48:50;;;;;;;2.67;1.30;;;8.70;67.20;;;;;;5077488;28;20362;-72
2020/12/15 10:51:16;;;;;;;1.65;0.98;;;8.80;65.30;;;;;;5077376;28;20052;-72
2020/12/15 10:53:41;;;;;;;1.42;0.50;;;8.90;65.60;;;;;;5059622;28;20033;-72
2020/12/15 10:56:07;;;;;;;0.47;0.30;;;8.90;63.10;;;;;;5077426;28;20058;-72
2020/12/15 10:58:33;;;;;;;2.15;0.85;;;8.90;57.20;;;;;;5077225;28;20032;-72
2020/12/15 11:00:59;;;;;;;1.08;0.60;;;8.90;63.80;;;;;;5077133;28;20056;-72
2020/12/15 11:03:24;;;;;;;1.30;0.70;;;8.90;64.50;;;;;;5077132;28;20059;-72
2020/12/15 11:05:50;;;;;;;1.42;0.90;;;9.00;64.90;;;;;;5076827;28;20059;-72
2020/12/15 11:08:16;;;;;;;1.27;0.80;;;9.00;67.30;;;;;;5077463;28;20044;-72
2020/12/15 11:10:47;;;;;;;1.00;0.60;;;9.10;61.50;;;;;;5059388;28;20025;-72
2020/12/15 11:13:13;;;;;;;1.38;0.60;;;9.10;59.60;;;;;;5077068;28;20033;-70
2020/12/15 11:15:38;;;;;;;1.33;0.70;;;9.10;59.70;;;;;;5076958;28;20028;-70
2020/12/15 11:18:06;;;;;;;1.42;0.80;;;9.10;61.20;;;;;;5076875;28;20029;-70
2020/12/15 11:20:33;;;;;;;1.40;0.88;;;9.10;64.30;;;;;;5077278;28;20028;-70
2020/12/15 11:23:01;;;;;;;1.48;0.85;;;9.20;63.60;;;;;;5076973;28;20024;-70
2020/12/15 11:25:27;;;;;;;2.60;1.23;;;9.30;62.90;;;;;;5076878;28;20369;-71
2020/12/15 11:27:53;;;;;;;2.60;1.45;;;9.30;63.80;;;;;;5076837;28;20101;-70
2020/12/15 11:30:18;;;;;;;1.40;0.80;;;9.40;62.90;;;;;;5077017;28;20017;-70
2020/12/15 11:32:46;;;;;;;1.40;1.00;;;9.40;64.70;;;;;;5076951;28;20020;-71
2020/12/15 11:35:12;;;;;;;2.45;1.48;;;9.40;64.00;;;;;;5076950;28;20016;-70
2020/12/15 11:37:40;;;;;;;2.20;1.45;;;9.40;63.90;;;;;;5076708;28;20070;-70
2020/12/15 11:40:07;;;;;;;2.50;1.65;;;9.40;61.80;;;;;;5076413;28;20051;-70
2020/12/15 11:42:33;;;;;;;3.33;1.40;;;9.40;61.30;;;;;;5076835;28;20037;-70
2020/12/15 11:44:58;;;;;;;2.35;1.38;;;9.40;62.90;;;;;;5076714;28;20404;-70
2020/12/15 11:47:24;;;;;;;1.35;0.95;;;9.50;65.50;;;;;;5076630;28;20020;-70
2020/12/15 11:49:50;;;;;;;1.73;0.98;;;9.60;62.60;;;;;;5076613;28;20020;-70
2020/12/15 11:52:16;;;;;;;1.08;0.60;;;9.60;62.00;;;;;;5076614;28;20112;-70
2020/12/15 11:54:42;;;;;;;1.25;0.63;;;9.70;62.40;;;;;;5076954;28;20127;-70
2020/12/15 11:57:11;;;;;;;1.02;0.70;;;9.80;63.50;;;;;;5076775;28;20314;-70
2020/12/15 11:59:37;;;;;;;1.38;0.70;;;9.90;60.30;;;;;;5076830;28;20025;-70
2020/12/15 12:02:04;;;;;;;1.13;0.70;;;10.00;59.10;;;;;;5076681;28;20024;-70
2020/12/15 12:04:30;;;;;;;0.80;0.50;;;10.10;59.00;;;;;;5076671;28;20101;-70
2020/12/15 12:06:55;;;;;;;1.67;1.10;;;10.20;57.70;;;;;;5076367;28;20021;-70
2020/12/15 12:09:21;;;;;;;1.80;1.20;;;10.40;61.20;;;;;;5076491;28;20096;-70
2020/12/15 12:11:47;;;;;;;1.70;0.82;;;10.40;57.30;;;;;;5058542;28;20074;-72
2020/12/15 12:14:13;;;;;;;1.33;0.90;;;10.40;59.20;;;;;;5076324;28;20024;-70
2020/12/15 12:16:40;;;;;;;1.23;0.88;;;10.50;57.80;;;;;;5076607;28;20035;-72
2020/12/15 12:19:07;;;;;;;1.75;0.75;;;10.40;59.10;;;;;;5076373;28;20319;-72
2020/12/15 12:21:34;;;;;;;3.28;0.80;;;10.40;59.10;;;;;;5076492;28;20037;-72
2020/12/15 12:24:00;;;;;;;2.47;1.60;;;10.40;60.10;;;;;;5076450;28;20039;-70
2020/12/15 12:26:25;;;;;;;12.80;4.70;;;10.40;60.10;;;;;;5076064;28;20436;-70
2020/12/15 12:28:53;;;;;;;6.60;4.13;;;10.30;66.60;;;;;;5076223;28;20025;-70
2020/12/15 12:31:19;;;;;;;3.72;2.53;;;10.20;65.30;;;;;;5058472;28;20412;-70
2020/12/15 12:33:45;;;;;;;4.15;2.45;;;10.10;63.30;;;;;;5076201;28;20028;-72
2020/12/15 12:36:11;;;;;;;4.82;2.35;;;9.90;62.90;;;;;;5076184;28;20032;-72
2020/12/15 12:38:36;;;;;;;3.90;2.10;;;9.80;64.80;;;;;;5076110;28;20027;-72
2020/12/15 12:41:02;;;;;;;2.30;1.33;;;9.80;65.50;;;;;;5076296;28;20029;-72
2020/12/15 12:43:28;;;;;;;1.65;1.00;;;9.80;60.20;;;;;;5076147;28;20025;-70
2020/12/15 12:45:56;;;;;;;2.88;1.73;;;9.80;58.70;;;;;;5075926;28;20415;-70
2020/12/15 12:48:22;;;;;;;3.05;2.45;;;9.90;62.10;;;;;;5076049;28;20028;-70
2020/12/15 12:50:47;;;;;;;3.13;2.38;;;9.90;65.00;;;;;;5076249;28;20051;-70
2020/12/15 12:53:13;;;;;;;1.92;1.55;;;9.90;64.10;;;;;;5079564;28;20032;-70
2020/12/15 12:55:39;;;;;;;2.75;1.40;;;9.90;63.20;;;;;;5079570;28;20033;-70
2020/12/15 12:58:05;;;;;;;3.00;2.00;;;10.00;59.00;;;;;;5079544;28;20051;-70